sensor_id;sensor_type;location;lat;lon;timestamp;P1;durP1;ratioP1;P2;durP2;ratioP2
76758;SDS011;65701;45.588;5.186;2023-06-04T00:02:03;4.50;;;4.50;;
76758;SDS011;65701;45.588;5.186;2023-06-04T00:04:29;4.00;;;3.50;;
76758;SDS011;65701;45.588;5.186;2023-06-04T00:06:55;5.00;;;4.00;;
76758;SDS011;65701;45.588;5.186;2023-06-04T00:09:21;3.75;;;3.00;;
76758;SDS011;65701;45.588;5.186;2023-06-04T00:11:46;6.50;;;4.00;;
76758;SDS011;65701;45.588;5.186;2023-06-04T00:14:13;8.25;;;5.00;;
76758;SDS011;65701;45.588;5.186;2023-06-04T00:16:40;5.50;;;5.00;;
76758;SDS011;65701;45.588;5.186;2023-06-04T00:19:10;7.25;;;6.50;;
76758;SDS011;65701;45.588;5.186;2023-06-04T00:21:39;9.75;;;7.75;;
76758;SDS011;65701;45.588;5.186;2023-06-04T00:24:10;9.75;;;9.75;;
76758;SDS011;65701;45.588;5.186;2023-06-04T00:26:37;8.75;;;8.25;;
76758;SDS011;65701;45.588;5.186;2023-06-04T00:29:02;6.25;;;5.50;;
76758;SDS011;65701;45.588;5.186;2023-06-04T00:31:28;4.00;;;4.00;;
76758;SDS011;65701;45.588;5.186;2023-06-04T00:33:54;6.00;;;6.00;;
76758;SDS011;65701;45.588;5.186;2023-06-04T00:36:21;4.00;;;4.00;;
76758;SDS011;65701;45.588;5.186;2023-06-04T00:38:49;8.75;;;6.00;;
76758;SDS011;65701;45.588;5.186;2023-06-04T00:41:16;8.50;;;6.75;;
76758;SDS011;65701;45.588;5.186;2023-06-04T00:43:41;6.00;;;6.00;;
76758;SDS011;65701;45.588;5.186;2023-06-04T00:46:12;4.75;;;4.25;;
76758;SDS011;65701;45.588;5.186;2023-06-04T00:48:44;6.50;;;5.50;;
76758;SDS011;65701;45.588;5.186;2023-06-04T00:51:15;6.25;;;6.25;;
76758;SDS011;65701;45.588;5.186;2023-06-04T00:53:42;8.00;;;8.00;;
76758;SDS011;65701;45.588;5.186;2023-06-04T00:56:08;10.75;;;8.50;;
76758;SDS011;65701;45.588;5.186;2023-06-04T00:58:38;4.25;;;4.00;;
76758;SDS011;65701;45.588;5.186;2023-06-04T01:01:05;9.00;;;6.00;;
76758;SDS011;65701;45.588;5.186;2023-06-04T01:03:35;4.50;;;3.25;;
76758;SDS011;65701;45.588;5.186;2023-06-04T01:08:50;8.25;;;8.25;;
76758;SDS011;65701;45.588;5.186;2023-06-04T01:11:36;5.75;;;5.75;;
76758;SDS011;65701;45.588;5.186;2023-06-04T01:14:03;8.00;;;7.75;;
76758;SDS011;65701;45.588;5.186;2023-06-04T01:16:38;8.00;;;8.00;;
76758;SDS011;65701;45.588;5.186;2023-06-04T01:19:09;9.00;;;8.50;;
76758;SDS011;65701;45.588;5.186;2023-06-04T01:21:48;8.25;;;8.25;;
76758;SDS011;65701;45.588;5.186;2023-06-04T01:24:19;8.00;;;7.00;;
76758;SDS011;65701;45.588;5.186;2023-06-04T01:26:50;8.25;;;6.50;;
76758;SDS011;65701;45.588;5.186;2023-06-04T01:29:19;5.25;;;5.25;;
76758;SDS011;65701;45.588;5.186;2023-06-04T01:31:45;5.50;;;5.25;;
76758;SDS011;65701;45.588;5.186;2023-06-04T01:34:11;8.00;;;7.75;;
76758;SDS011;65701;45.588;5.186;2023-06-04T01:36:37;8.00;;;5.00;;
76758;SDS011;65701;45.588;5.186;2023-06-04T01:39:02;5.50;;;5.50;;
76758;SDS011;65701;45.588;5.186;2023-06-04T01:41:28;6.00;;;5.25;;
76758;SDS011;65701;45.588;5.186;2023-06-04T01:43:53;7.25;;;5.00;;
76758;SDS011;65701;45.588;5.186;2023-06-04T01:46:19;6.50;;;6.50;;
76758;SDS011;65701;45.588;5.186;2023-06-04T01:48:44;5.75;;;5.75;;
76758;SDS011;65701;45.588;5.186;2023-06-04T01:51:13;7.75;;;7.25;;
76758;SDS011;65701;45.588;5.186;2023-06-04T01:53:39;8.75;;;5.25;;
76758;SDS011;65701;45.588;5.186;2023-06-04T01:56:05;10.25;;;6.75;;
76758;SDS011;65701;45.588;5.186;2023-06-04T01:58:32;6.50;;;6.50;;
76758;SDS011;65701;45.588;5.186;2023-06-04T02:00:59;9.00;;;5.50;;
76758;SDS011;65701;45.588;5.186;2023-06-04T02:03:28;8.25;;;6.75;;
76758;SDS011;65701;45.588;5.186;2023-06-04T02:05:57;5.25;;;5.25;;
76758;SDS011;65701;45.588;5.186;2023-06-04T02:08:22;6.75;;;6.25;;
76758;SDS011;65701;45.588;5.186;2023-06-04T02:10:50;7.25;;;6.25;;
76758;SDS011;65701;45.588;5.186;2023-06-04T02:13:15;8.25;;;6.75;;
76758;SDS011;65701;45.588;5.186;2023-06-04T02:15:41;9.00;;;7.75;;
76758;SDS011;65701;45.588;5.186;2023-06-04T02:18:17;6.75;;;6.75;;
76758;SDS011;65701;45.588;5.186;2023-06-04T02:20:46;7.75;;;6.00;;
76758;SDS011;65701;45.588;5.186;2023-06-04T02:23:14;6.75;;;6.75;;
76758;SDS011;65701;45.588;5.186;2023-06-04T02:25:41;4.50;;;4.50;;
76758;SDS011;65701;45.588;5.186;2023-06-04T02:28:09;7.00;;;7.00;;
76758;SDS011;65701;45.588;5.186;2023-06-04T02:30:35;9.50;;;7.75;;
76758;SDS011;65701;45.588;5.186;2023-06-04T02:33:01;4.00;;;4.00;;
76758;SDS011;65701;45.588;5.186;2023-06-04T02:35:27;8.75;;;7.00;;
76758;SDS011;65701;45.588;5.186;2023-06-04T02:37:53;7.50;;;4.75;;
76758;SDS011;65701;45.588;5.186;2023-06-04T02:40:21;8.75;;;7.00;;
76758;SDS011;65701;45.588;5.186;2023-06-04T02:42:47;3.50;;;3.50;;
76758;SDS011;65701;45.588;5.186;2023-06-04T02:45:12;7.75;;;4.00;;
76758;SDS011;65701;45.588;5.186;2023-06-04T02:47:38;6.75;;;5.75;;
76758;SDS011;65701;45.588;5.186;2023-06-04T02:50:03;5.50;;;5.50;;
76758;SDS011;65701;45.588;5.186;2023-06-04T02:52:29;6.75;;;6.75;;
76758;SDS011;65701;45.588;5.186;2023-06-04T02:54:55;7.25;;;6.25;;
76758;SDS011;65701;45.588;5.186;2023-06-04T02:57:22;8.25;;;6.75;;
76758;SDS011;65701;45.588;5.186;2023-06-04T02:59:47;4.00;;;4.00;;
76758;SDS011;65701;45.588;5.186;2023-06-04T03:02:13;6.00;;;6.00;;
76758;SDS011;65701;45.588;5.186;2023-06-04T03:04:40;5.75;;;5.50;;
76758;SDS011;65701;45.588;5.186;2023-06-04T03:07:07;8.25;;;8.25;;
76758;SDS011;65701;45.588;5.186;2023-06-04T03:09:36;8.00;;;6.25;;
76758;SDS011;65701;45.588;5.186;2023-06-04T03:12:02;8.25;;;6.75;;
76758;SDS011;65701;45.588;5.186;2023-06-04T03:14:28;7.50;;;7.50;;
76758;SDS011;65701;45.588;5.186;2023-06-04T03:17:00;7.25;;;4.25;;
76758;SDS011;65701;45.588;5.186;2023-06-04T03:19:32;8.75;;;7.50;;
76758;SDS011;65701;45.588;5.186;2023-06-04T03:21:58;5.25;;;5.25;;
76758;SDS011;65701;45.588;5.186;2023-06-04T03:24:25;6.75;;;6.75;;
76758;SDS011;65701;45.588;5.186;2023-06-04T03:26:51;6.25;;;6.25;;
76758;SDS011;65701;45.588;5.186;2023-06-04T03:29:17;4.00;;;4.00;;
76758;SDS011;65701;45.588;5.186;2023-06-04T03:31:44;6.25;;;5.25;;
76758;SDS011;65701;45.588;5.186;2023-06-04T03:34:10;4.00;;;4.00;;
76758;SDS011;65701;45.588;5.186;2023-06-04T03:36:35;8.00;;;4.75;;
76758;SDS011;65701;45.588;5.186;2023-06-04T03:39:03;7.75;;;7.00;;
76758;SDS011;65701;45.588;5.186;2023-06-04T03:41:29;5.75;;;5.75;;
76758;SDS011;65701;45.588;5.186;2023-06-04T03:43:55;4.00;;;4.00;;
76758;SDS011;65701;45.588;5.186;2023-06-04T03:46:21;6.00;;;5.25;;
76758;SDS011;65701;45.588;5.186;2023-06-04T03:48:46;6.25;;;6.25;;
76758;SDS011;65701;45.588;5.186;2023-06-04T03:51:12;7.50;;;7.25;;
76758;SDS011;65701;45.588;5.186;2023-06-04T03:53:37;8.75;;;5.50;;
76758;SDS011;65701;45.588;5.186;2023-06-04T03:56:03;7.75;;;6.75;;
76758;SDS011;65701;45.588;5.186;2023-06-04T03:58:28;6.00;;;5.00;;
76758;SDS011;65701;45.588;5.186;2023-06-04T04:00:54;5.50;;;5.50;;
76758;SDS011;65701;45.588;5.186;2023-06-04T04:03:19;5.50;;;5.50;;
76758;SDS011;65701;45.588;5.186;2023-06-04T04:05:46;7.50;;;7.25;;
76758;SDS011;65701;45.588;5.186;2023-06-04T04:08:12;7.50;;;4.75;;
76758;SDS011;65701;45.588;5.186;2023-06-04T04:10:41;5.25;;;5.25;;
76758;SDS011;65701;45.588;5.186;2023-06-04T04:13:06;5.00;;;4.00;;
76758;SDS011;65701;45.588;5.186;2023-06-04T04:15:32;8.75;;;6.25;;
76758;SDS011;65701;45.588;5.186;2023-06-04T04:17:57;7.25;;;7.25;;
76758;SDS011;65701;45.588;5.186;2023-06-04T04:20:23;8.75;;;8.25;;
76758;SDS011;65701;45.588;5.186;2023-06-04T04:22:48;7.50;;;6.25;;
76758;SDS011;65701;45.588;5.186;2023-06-04T04:25:15;9.25;;;8.50;;
76758;SDS011;65701;45.588;5.186;2023-06-04T04:27:40;6.75;;;6.75;;
76758;SDS011;65701;45.588;5.186;2023-06-04T04:30:06;9.50;;;7.50;;
76758;SDS011;65701;45.588;5.186;2023-06-04T04:32:32;7.00;;;7.00;;
76758;SDS011;65701;45.588;5.186;2023-06-04T04:34:57;8.75;;;7.50;;
76758;SDS011;65701;45.588;5.186;2023-06-04T04:37:24;10.25;;;7.00;;
76758;SDS011;65701;45.588;5.186;2023-06-04T04:39:51;8.00;;;8.00;;
76758;SDS011;65701;45.588;5.186;2023-06-04T04:42:17;7.00;;;7.00;;
76758;SDS011;65701;45.588;5.186;2023-06-04T04:44:43;11.00;;;10.50;;
76758;SDS011;65701;45.588;5.186;2023-06-04T04:47:12;9.75;;;8.50;;
76758;SDS011;65701;45.588;5.186;2023-06-04T04:49:41;11.50;;;10.50;;
76758;SDS011;65701;45.588;5.186;2023-06-04T04:52:07;9.75;;;9.75;;
76758;SDS011;65701;45.588;5.186;2023-06-04T04:54:32;15.75;;;13.00;;
76758;SDS011;65701;45.588;5.186;2023-06-04T04:56:58;13.50;;;12.75;;
76758;SDS011;65701;45.588;5.186;2023-06-04T04:59:23;9.75;;;8.25;;
76758;SDS011;65701;45.588;5.186;2023-06-04T05:01:49;10.00;;;10.00;;
76758;SDS011;65701;45.588;5.186;2023-06-04T05:04:14;11.50;;;11.50;;
76758;SDS011;65701;45.588;5.186;2023-06-04T05:06:39;10.25;;;10.00;;
76758;SDS011;65701;45.588;5.186;2023-06-04T05:09:05;13.25;;;9.50;;
76758;SDS011;65701;45.588;5.186;2023-06-04T05:11:32;11.00;;;11.00;;
76758;SDS011;65701;45.588;5.186;2023-06-04T05:13:57;10.25;;;10.25;;
76758;SDS011;65701;45.588;5.186;2023-06-04T05:16:23;9.75;;;9.50;;
76758;SDS011;65701;45.588;5.186;2023-06-04T05:18:48;12.25;;;10.25;;
76758;SDS011;65701;45.588;5.186;2023-06-04T05:21:16;11.75;;;8.00;;
76758;SDS011;65701;45.588;5.186;2023-06-04T05:23:42;13.00;;;13.00;;
76758;SDS011;65701;45.588;5.186;2023-06-04T05:26:09;11.50;;;8.75;;
76758;SDS011;65701;45.588;5.186;2023-06-04T05:28:34;11.25;;;11.25;;
76758;SDS011;65701;45.588;5.186;2023-06-04T05:31:00;12.50;;;10.25;;
76758;SDS011;65701;45.588;5.186;2023-06-04T05:33:26;16.00;;;13.75;;
76758;SDS011;65701;45.588;5.186;2023-06-04T05:35:52;14.00;;;11.00;;
76758;SDS011;65701;45.588;5.186;2023-06-04T05:38:19;11.75;;;10.25;;
76758;SDS011;65701;45.588;5.186;2023-06-04T05:40:45;10.25;;;10.25;;
76758;SDS011;65701;45.588;5.186;2023-06-04T05:43:10;10.75;;;9.00;;
76758;SDS011;65701;45.588;5.186;2023-06-04T05:45:36;12.00;;;11.00;;
76758;SDS011;65701;45.588;5.186;2023-06-04T05:48:03;9.50;;;9.50;;
76758;SDS011;65701;45.588;5.186;2023-06-04T05:50:29;9.00;;;8.00;;
76758;SDS011;65701;45.588;5.186;2023-06-04T05:52:55;7.75;;;7.75;;
76758;SDS011;65701;45.588;5.186;2023-06-04T05:55:21;10.00;;;9.00;;
76758;SDS011;65701;45.588;5.186;2023-06-04T05:57:47;8.75;;;8.25;;
76758;SDS011;65701;45.588;5.186;2023-06-04T06:00:13;8.75;;;7.00;;
76758;SDS011;65701;45.588;5.186;2023-06-04T06:02:38;9.00;;;9.00;;
76758;SDS011;65701;45.588;5.186;2023-06-04T06:05:05;10.75;;;7.75;;
76758;SDS011;65701;45.588;5.186;2023-06-04T06:07:33;8.75;;;8.75;;
76758;SDS011;65701;45.588;5.186;2023-06-04T06:09:59;11.00;;;10.00;;
76758;SDS011;65701;45.588;5.186;2023-06-04T06:12:24;8.50;;;8.50;;
76758;SDS011;65701;45.588;5.186;2023-06-04T06:14:50;8.50;;;8.50;;
76758;SDS011;65701;45.588;5.186;2023-06-04T06:17:15;8.00;;;7.00;;
76758;SDS011;65701;45.588;5.186;2023-06-04T06:19:41;9.00;;;7.25;;
76758;SDS011;65701;45.588;5.186;2023-06-04T06:22:07;6.50;;;6.50;;
76758;SDS011;65701;45.588;5.186;2023-06-04T06:24:32;7.00;;;6.25;;
76758;SDS011;65701;45.588;5.186;2023-06-04T06:26:58;9.00;;;7.75;;
76758;SDS011;65701;45.588;5.186;2023-06-04T06:29:24;9.00;;;7.00;;
76758;SDS011;65701;45.588;5.186;2023-06-04T06:31:50;6.00;;;6.00;;
76758;SDS011;65701;45.588;5.186;2023-06-04T06:34:15;8.75;;;6.00;;
76758;SDS011;65701;45.588;5.186;2023-06-04T06:36:41;7.00;;;5.00;;
76758;SDS011;65701;45.588;5.186;2023-06-04T06:39:07;6.25;;;6.25;;
76758;SDS011;65701;45.588;5.186;2023-06-04T06:41:34;5.75;;;5.00;;
76758;SDS011;65701;45.588;5.186;2023-06-04T06:44:00;6.00;;;6.00;;
76758;SDS011;65701;45.588;5.186;2023-06-04T06:46:25;6.50;;;5.50;;
76758;SDS011;65701;45.588;5.186;2023-06-04T06:48:51;8.75;;;6.50;;
76758;SDS011;65701;45.588;5.186;2023-06-04T06:51:17;6.50;;;6.25;;
76758;SDS011;65701;45.588;5.186;2023-06-04T06:53:46;7.25;;;6.00;;
76758;SDS011;65701;45.588;5.186;2023-06-04T06:56:13;5.50;;;5.25;;
76758;SDS011;65701;45.588;5.186;2023-06-04T06:58:50;7.25;;;5.50;;
76758;SDS011;65701;45.588;5.186;2023-06-04T07:01:16;6.00;;;6.00;;
76758;SDS011;65701;45.588;5.186;2023-06-04T07:03:42;7.00;;;5.75;;
76758;SDS011;65701;45.588;5.186;2023-06-04T07:06:09;6.25;;;5.75;;
76758;SDS011;65701;45.588;5.186;2023-06-04T07:08:35;6.50;;;6.50;;
76758;SDS011;65701;45.588;5.186;2023-06-04T07:11:19;6.50;;;6.50;;
76758;SDS011;65701;45.588;5.186;2023-06-04T07:13:44;4.00;;;4.00;;
76758;SDS011;65701;45.588;5.186;2023-06-04T07:16:10;7.50;;;6.75;;
76758;SDS011;65701;45.588;5.186;2023-06-04T07:18:38;6.75;;;6.75;;
76758;SDS011;65701;45.588;5.186;2023-06-04T07:21:04;9.25;;;7.50;;
76758;SDS011;65701;45.588;5.186;2023-06-04T07:23:30;9.50;;;7.50;;
76758;SDS011;65701;45.588;5.186;2023-06-04T07:25:55;9.00;;;6.75;;
76758;SDS011;65701;45.588;5.186;2023-06-04T07:28:22;6.25;;;5.75;;
76758;SDS011;65701;45.588;5.186;2023-06-04T07:30:47;9.25;;;7.25;;
76758;SDS011;65701;45.588;5.186;2023-06-04T07:33:13;9.75;;;8.25;;
76758;SDS011;65701;45.588;5.186;2023-06-04T07:35:38;6.00;;;5.50;;
76758;SDS011;65701;45.588;5.186;2023-06-04T07:38:04;7.25;;;7.25;;
76758;SDS011;65701;45.588;5.186;2023-06-04T07:40:29;8.25;;;6.75;;
76758;SDS011;65701;45.588;5.186;2023-06-04T07:42:55;10.75;;;8.25;;
76758;SDS011;65701;45.588;5.186;2023-06-04T07:45:21;6.50;;;6.50;;
76758;SDS011;65701;45.588;5.186;2023-06-04T07:47:46;9.75;;;6.50;;
76758;SDS011;65701;45.588;5.186;2023-06-04T07:50:12;7.50;;;7.50;;
76758;SDS011;65701;45.588;5.186;2023-06-04T07:52:37;10.75;;;9.00;;
76758;SDS011;65701;45.588;5.186;2023-06-04T07:55:03;8.50;;;7.25;;
76758;SDS011;65701;45.588;5.186;2023-06-04T07:57:30;7.75;;;7.75;;
76758;SDS011;65701;45.588;5.186;2023-06-04T07:59:56;8.25;;;7.50;;
76758;SDS011;65701;45.588;5.186;2023-06-04T08:02:22;9.00;;;7.50;;
76758;SDS011;65701;45.588;5.186;2023-06-04T08:04:47;10.25;;;8.75;;
76758;SDS011;65701;45.588;5.186;2023-06-04T08:07:13;11.25;;;9.75;;
76758;SDS011;65701;45.588;5.186;2023-06-04T08:09:38;9.25;;;9.00;;
76758;SDS011;65701;45.588;5.186;2023-06-04T08:12:04;11.75;;;11.50;;
76758;SDS011;65701;45.588;5.186;2023-06-04T08:14:30;8.75;;;8.75;;
76758;SDS011;65701;45.588;5.186;2023-06-04T08:16:57;11.25;;;10.00;;
76758;SDS011;65701;45.588;5.186;2023-06-04T08:19:22;9.25;;;9.00;;
76758;SDS011;65701;45.588;5.186;2023-06-04T08:21:49;10.75;;;10.00;;
76758;SDS011;65701;45.588;5.186;2023-06-04T08:24:14;10.50;;;8.00;;
76758;SDS011;65701;45.588;5.186;2023-06-04T08:26:40;10.75;;;10.75;;
76758;SDS011;65701;45.588;5.186;2023-06-04T08:29:06;9.25;;;9.25;;
76758;SDS011;65701;45.588;5.186;2023-06-04T08:31:32;9.50;;;9.50;;
76758;SDS011;65701;45.588;5.186;2023-06-04T08:33:58;10.50;;;10.50;;
76758;SDS011;65701;45.588;5.186;2023-06-04T08:36:24;8.50;;;8.50;;
76758;SDS011;65701;45.588;5.186;2023-06-04T08:38:50;7.00;;;7.00;;
76758;SDS011;65701;45.588;5.186;2023-06-04T08:41:24;9.50;;;9.50;;
76758;SDS011;65701;45.588;5.186;2023-06-04T08:43:51;12.25;;;12.25;;
76758;SDS011;65701;45.588;5.186;2023-06-04T08:46:23;12.00;;;9.25;;
76758;SDS011;65701;45.588;5.186;2023-06-04T08:48:49;10.25;;;10.25;;
76758;SDS011;65701;45.588;5.186;2023-06-04T08:51:15;9.75;;;8.25;;
76758;SDS011;65701;45.588;5.186;2023-06-04T08:53:42;8.50;;;8.00;;
76758;SDS011;65701;45.588;5.186;2023-06-04T08:56:08;10.50;;;8.50;;
76758;SDS011;65701;45.588;5.186;2023-06-04T08:58:35;10.00;;;9.25;;
76758;SDS011;65701;45.588;5.186;2023-06-04T09:01:05;12.00;;;11.25;;
76758;SDS011;65701;45.588;5.186;2023-06-04T09:03:31;12.00;;;9.50;;
76758;SDS011;65701;45.588;5.186;2023-06-04T09:05:58;9.25;;;8.00;;
76758;SDS011;65701;45.588;5.186;2023-06-04T09:08:24;10.75;;;10.75;;
76758;SDS011;65701;45.588;5.186;2023-06-04T09:10:53;14.00;;;12.50;;
76758;SDS011;65701;45.588;5.186;2023-06-04T09:13:21;12.00;;;9.75;;
76758;SDS011;65701;45.588;5.186;2023-06-04T09:16:03;12.75;;;10.50;;
76758;SDS011;65701;45.588;5.186;2023-06-04T09:18:30;13.75;;;11.00;;
76758;SDS011;65701;45.588;5.186;2023-06-04T09:21:00;14.25;;;13.00;;
76758;SDS011;65701;45.588;5.186;2023-06-04T09:23:26;10.50;;;10.50;;
76758;SDS011;65701;45.588;5.186;2023-06-04T09:25:53;11.25;;;9.75;;
76758;SDS011;65701;45.588;5.186;2023-06-04T09:28:19;11.00;;;8.50;;
76758;SDS011;65701;45.588;5.186;2023-06-04T09:30:52;12.00;;;11.50;;
76758;SDS011;65701;45.588;5.186;2023-06-04T09:33:18;12.75;;;9.50;;
76758;SDS011;65701;45.588;5.186;2023-06-04T09:35:53;11.25;;;10.25;;
76758;SDS011;65701;45.588;5.186;2023-06-04T09:38:20;11.00;;;10.00;;
76758;SDS011;65701;45.588;5.186;2023-06-04T09:40:46;16.00;;;13.25;;
76758;SDS011;65701;45.588;5.186;2023-06-04T09:43:20;11.25;;;9.50;;
76758;SDS011;65701;45.588;5.186;2023-06-04T09:45:47;9.00;;;9.00;;
76758;SDS011;65701;45.588;5.186;2023-06-04T09:48:18;11.25;;;11.00;;
76758;SDS011;65701;45.588;5.186;2023-06-04T09:50:46;11.25;;;11.00;;
76758;SDS011;65701;45.588;5.186;2023-06-04T09:53:18;12.50;;;11.75;;
76758;SDS011;65701;45.588;5.186;2023-06-04T09:55:57;12.25;;;11.75;;
76758;SDS011;65701;45.588;5.186;2023-06-04T09:58:27;14.50;;;14.50;;
76758;SDS011;65701;45.588;5.186;2023-06-04T10:00:54;14.00;;;13.75;;
76758;SDS011;65701;45.588;5.186;2023-06-04T10:03:23;9.75;;;9.75;;
76758;SDS011;65701;45.588;5.186;2023-06-04T10:05:51;11.00;;;11.00;;
76758;SDS011;65701;45.588;5.186;2023-06-04T10:08:18;11.00;;;11.00;;
76758;SDS011;65701;45.588;5.186;2023-06-04T10:10:49;9.25;;;9.25;;
76758;SDS011;65701;45.588;5.186;2023-06-04T10:13:18;12.25;;;9.25;;
76758;SDS011;65701;45.588;5.186;2023-06-04T10:15:47;10.50;;;10.50;;
76758;SDS011;65701;45.588;5.186;2023-06-04T10:18:14;14.50;;;11.75;;
76758;SDS011;65701;45.588;5.186;2023-06-04T10:20:40;16.25;;;12.50;;
76758;SDS011;65701;45.588;5.186;2023-06-04T10:23:07;15.00;;;14.00;;
76758;SDS011;65701;45.588;5.186;2023-06-04T10:25:36;12.25;;;12.25;;
76758;SDS011;65701;45.588;5.186;2023-06-04T10:28:02;10.00;;;10.00;;
76758;SDS011;65701;45.588;5.186;2023-06-04T10:30:31;13.25;;;12.25;;
76758;SDS011;65701;45.588;5.186;2023-06-04T10:32:57;10.00;;;10.00;;
76758;SDS011;65701;45.588;5.186;2023-06-04T10:35:33;11.25;;;11.25;;
76758;SDS011;65701;45.588;5.186;2023-06-04T10:38:18;11.75;;;10.50;;
76758;SDS011;65701;45.588;5.186;2023-06-04T10:40:45;8.25;;;6.75;;
76758;SDS011;65701;45.588;5.186;2023-06-04T10:43:12;10.50;;;10.25;;
76758;SDS011;65701;45.588;5.186;2023-06-04T10:45:39;11.50;;;11.25;;
76758;SDS011;65701;45.588;5.186;2023-06-04T10:48:06;14.00;;;13.25;;
76758;SDS011;65701;45.588;5.186;2023-06-04T10:50:34;12.50;;;11.50;;
76758;SDS011;65701;45.588;5.186;2023-06-04T10:53:12;9.00;;;8.75;;
76758;SDS011;65701;45.588;5.186;2023-06-04T10:55:44;11.25;;;10.75;;
76758;SDS011;65701;45.588;5.186;2023-06-04T10:58:14;13.25;;;10.75;;
76758;SDS011;65701;45.588;5.186;2023-06-04T11:00:44;12.50;;;12.50;;
76758;SDS011;65701;45.588;5.186;2023-06-04T11:03:12;12.75;;;11.75;;
76758;SDS011;65701;45.588;5.186;2023-06-04T11:05:40;12.25;;;11.25;;
76758;SDS011;65701;45.588;5.186;2023-06-04T11:08:09;12.25;;;11.25;;
76758;SDS011;65701;45.588;5.186;2023-06-04T11:10:39;11.50;;;11.50;;
76758;SDS011;65701;45.588;5.186;2023-06-04T11:13:06;13.00;;;13.00;;
76758;SDS011;65701;45.588;5.186;2023-06-04T11:18:17;11.25;;;11.25;;
76758;SDS011;65701;45.588;5.186;2023-06-04T11:20:44;13.00;;;11.50;;
76758;SDS011;65701;45.588;5.186;2023-06-04T11:23:14;12.75;;;11.00;;
76758;SDS011;65701;45.588;5.186;2023-06-04T11:25:41;10.25;;;9.50;;
76758;SDS011;65701;45.588;5.186;2023-06-04T11:28:13;13.75;;;13.00;;
76758;SDS011;65701;45.588;5.186;2023-06-04T11:30:40;11.75;;;8.00;;
76758;SDS011;65701;45.588;5.186;2023-06-04T11:33:06;10.50;;;9.25;;
76758;SDS011;65701;45.588;5.186;2023-06-04T11:35:38;10.75;;;9.25;;
76758;SDS011;65701;45.588;5.186;2023-06-04T11:38:08;13.25;;;11.00;;
76758;SDS011;65701;45.588;5.186;2023-06-04T11:40:34;9.00;;;9.00;;
76758;SDS011;65701;45.588;5.186;2023-06-04T11:43:00;9.00;;;8.00;;
76758;SDS011;65701;45.588;5.186;2023-06-04T11:45:27;10.50;;;10.50;;
76758;SDS011;65701;45.588;5.186;2023-06-04T11:47:55;11.50;;;10.00;;
76758;SDS011;65701;45.588;5.186;2023-06-04T11:50:22;9.50;;;9.50;;
76758;SDS011;65701;45.588;5.186;2023-06-04T11:52:52;8.25;;;8.25;;
76758;SDS011;65701;45.588;5.186;2023-06-04T11:55:18;9.75;;;9.50;;
76758;SDS011;65701;45.588;5.186;2023-06-04T11:57:47;10.75;;;9.50;;
76758;SDS011;65701;45.588;5.186;2023-06-04T12:00:13;10.75;;;9.50;;
76758;SDS011;65701;45.588;5.186;2023-06-04T12:02:53;9.75;;;8.75;;
76758;SDS011;65701;45.588;5.186;2023-06-04T12:05:20;12.50;;;11.00;;
76758;SDS011;65701;45.588;5.186;2023-06-04T12:07:48;8.75;;;8.50;;
76758;SDS011;65701;45.588;5.186;2023-06-04T12:10:16;8.75;;;8.75;;
76758;SDS011;65701;45.588;5.186;2023-06-04T12:12:45;12.00;;;9.75;;
76758;SDS011;65701;45.588;5.186;2023-06-04T12:15:12;8.00;;;8.00;;
76758;SDS011;65701;45.588;5.186;2023-06-04T12:17:51;10.00;;;10.00;;
76758;SDS011;65701;45.588;5.186;2023-06-04T12:20:18;8.25;;;8.25;;
76758;SDS011;65701;45.588;5.186;2023-06-04T12:22:55;9.50;;;9.50;;
76758;SDS011;65701;45.588;5.186;2023-06-04T12:25:24;11.00;;;10.50;;
76758;SDS011;65701;45.588;5.186;2023-06-04T12:27:51;14.00;;;11.50;;
76758;SDS011;65701;45.588;5.186;2023-06-04T12:30:16;10.00;;;10.00;;
76758;SDS011;65701;45.588;5.186;2023-06-04T12:32:45;9.75;;;9.50;;
76758;SDS011;65701;45.588;5.186;2023-06-04T12:35:11;8.25;;;7.50;;
76758;SDS011;65701;45.588;5.186;2023-06-04T12:37:37;10.00;;;8.75;;
76758;SDS011;65701;45.588;5.186;2023-06-04T12:40:15;7.00;;;7.00;;
76758;SDS011;65701;45.588;5.186;2023-06-04T12:42:40;7.00;;;7.00;;
76758;SDS011;65701;45.588;5.186;2023-06-04T12:45:08;6.00;;;6.00;;
76758;SDS011;65701;45.588;5.186;2023-06-04T12:47:36;5.00;;;5.00;;
76758;SDS011;65701;45.588;5.186;2023-06-04T12:50:01;9.00;;;7.00;;
76758;SDS011;65701;45.588;5.186;2023-06-04T12:52:28;7.25;;;7.25;;
76758;SDS011;65701;45.588;5.186;2023-06-04T12:54:53;6.75;;;6.75;;
76758;SDS011;65701;45.588;5.186;2023-06-04T12:57:18;7.75;;;7.25;;
76758;SDS011;65701;45.588;5.186;2023-06-04T12:59:44;6.25;;;6.25;;
76758;SDS011;65701;45.588;5.186;2023-06-04T13:02:10;6.00;;;6.00;;
76758;SDS011;65701;45.588;5.186;2023-06-04T13:04:36;7.00;;;5.75;;
76758;SDS011;65701;45.588;5.186;2023-06-04T13:07:01;6.00;;;5.25;;
76758;SDS011;65701;45.588;5.186;2023-06-04T13:09:28;7.00;;;5.50;;
76758;SDS011;65701;45.588;5.186;2023-06-04T13:11:53;6.25;;;5.50;;
76758;SDS011;65701;45.588;5.186;2023-06-04T13:14:20;5.50;;;5.50;;
76758;SDS011;65701;45.588;5.186;2023-06-04T13:16:46;5.00;;;4.75;;
76758;SDS011;65701;45.588;5.186;2023-06-04T13:19:13;4.25;;;4.00;;
76758;SDS011;65701;45.588;5.186;2023-06-04T13:21:40;5.00;;;3.75;;
76758;SDS011;65701;45.588;5.186;2023-06-04T13:24:05;4.00;;;4.00;;
76758;SDS011;65701;45.588;5.186;2023-06-04T13:26:34;4.00;;;4.00;;
76758;SDS011;65701;45.588;5.186;2023-06-04T13:28:59;4.00;;;4.00;;
76758;SDS011;65701;45.588;5.186;2023-06-04T13:31:26;4.50;;;4.50;;
76758;SDS011;65701;45.588;5.186;2023-06-04T13:33:52;5.50;;;5.25;;
76758;SDS011;65701;45.588;5.186;2023-06-04T13:36:17;5.50;;;5.50;;
76758;SDS011;65701;45.588;5.186;2023-06-04T13:38:43;4.75;;;4.75;;
76758;SDS011;65701;45.588;5.186;2023-06-04T13:44:05;5.25;;;4.75;;
76758;SDS011;65701;45.588;5.186;2023-06-04T13:46:31;6.00;;;5.00;;
76758;SDS011;65701;45.588;5.186;2023-06-04T13:48:57;4.25;;;4.25;;
76758;SDS011;65701;45.588;5.186;2023-06-04T13:51:22;5.75;;;5.75;;
76758;SDS011;65701;45.588;5.186;2023-06-04T13:53:47;6.25;;;5.00;;
76758;SDS011;65701;45.588;5.186;2023-06-04T13:56:14;8.50;;;5.25;;
76758;SDS011;65701;45.588;5.186;2023-06-04T13:58:40;7.00;;;6.50;;
76758;SDS011;65701;45.588;5.186;2023-06-04T14:01:06;8.75;;;8.00;;
76758;SDS011;65701;45.588;5.186;2023-06-04T14:03:31;7.50;;;7.50;;
76758;SDS011;65701;45.588;5.186;2023-06-04T14:05:57;6.00;;;6.00;;
76758;SDS011;65701;45.588;5.186;2023-06-04T14:08:23;6.50;;;6.50;;
76758;SDS011;65701;45.588;5.186;2023-06-04T14:10:48;9.75;;;6.75;;
76758;SDS011;65701;45.588;5.186;2023-06-04T14:13:16;7.25;;;5.25;;
76758;SDS011;65701;45.588;5.186;2023-06-04T14:15:42;10.75;;;5.75;;
76758;SDS011;65701;45.588;5.186;2023-06-04T14:18:08;7.25;;;7.25;;
76758;SDS011;65701;45.588;5.186;2023-06-04T14:20:34;8.25;;;8.25;;
76758;SDS011;65701;45.588;5.186;2023-06-04T14:23:00;6.25;;;6.25;;
76758;SDS011;65701;45.588;5.186;2023-06-04T14:25:26;7.00;;;6.25;;
76758;SDS011;65701;45.588;5.186;2023-06-04T14:27:52;6.50;;;4.75;;
76758;SDS011;65701;45.588;5.186;2023-06-04T14:30:21;8.25;;;8.25;;
76758;SDS011;65701;45.588;5.186;2023-06-04T14:32:46;4.50;;;4.50;;
76758;SDS011;65701;45.588;5.186;2023-06-04T14:35:12;7.50;;;7.50;;
76758;SDS011;65701;45.588;5.186;2023-06-04T14:37:38;7.00;;;4.75;;
76758;SDS011;65701;45.588;5.186;2023-06-04T14:40:03;6.50;;;6.50;;
76758;SDS011;65701;45.588;5.186;2023-06-04T14:42:30;5.00;;;5.00;;
76758;SDS011;65701;45.588;5.186;2023-06-04T14:44:55;5.25;;;5.25;;
76758;SDS011;65701;45.588;5.186;2023-06-04T14:47:21;4.50;;;4.50;;
76758;SDS011;65701;45.588;5.186;2023-06-04T14:49:47;4.00;;;4.00;;